Terminal Aerodrome Forecast
Issued by NWS Quad Cities IA IL

Home | Current Version | Previous Version | Text Only | Print | Product List | Glossary On
Versions: 1 2 3 4 5 6 7 8 9 10 11 12 13 14 15 16 17 18 19 20 21 22 23 24 25 26
816
FTUS43 KDVN 232035 AAA
TAFDBQ
TAF AMD
KDBQ 232035Z 2321/2418 22010KT P6SM VCSH SCT020 BKN060
     FM240000 33007KT P6SM BKN040
     FM240400 34006KT 4SM BR SCT004 BKN012
     FM241600 02010KT P6SM BKN015=

USA.gov is the U.S. government's official web portal to all federal, state and local government web resources and services.